Terminal Aerodrome Forecast
Issued by NWS Mt. Holly, NJ

Home | Current Version | Previous Version | Text Only | Print | Product List | Glossary On
Versions: 1 2 3 4 5 6 7 8 9 10 11 12 13 14 15 16 17 18 19 20 21 22 23 24
000
FTUS41 KPHI 222300
TAFPHL
TAF
KPHL 222339Z 2300/2406 21008KT P6SM BKN080
     FM231200 20006KT P6SM SCT100
     FM240000 16006KT P6SM OVC050
     FM240300 13006KT 6SM -RA SCT020 OVC035=

USA.gov is the U.S. government's official web portal to all federal, state and local government web resources and services.